Coeur d Alene, Idaho
Current Conditions -  °F | °C
As of 4:15 PM on Sunday 23 Nov 2014 (Local Time) from KCOE Reporting Station
Overcast Overcast  
Wind Chill: 34°   Ceiling: 2900
Heat Index: 39°   Visibility: 10mi
Dew Point: 36°   Wind: 7mph
Humidity: 87%   Direction: 240°WSW
Pressure: 29.97"   Gusts: NA
Location:  47.7269°N, 116.787°W
Report Text: KCOE 240015Z AUTO 24006KT 10SM SCT020 OVC029 04/02 A2997 RMK AO1
Loading
Personal Weather Stations






























Interactive Weather Map New forecast layout! Learn more

10-Day Weather Forecast

Advertisements
Track Severe Weather on mobile